Time;durP1;ratioP1;P1;durP2;ratioP2;P2;SDS_P1;SDS_P2;PMS_P1;PMS_P2;Temp;Humidity;BMP_temperature;BMP_pressure;BME280_temperature;BME280_humidity;BME280_pressure;Samples;Min_cycle;Max_cycle;Signal;HPM_P1;HPM_P2
2022/05/31 00:00:15;;;;;;;6.00;2.80;;;14.60;87.90;;;;;;4948122;28;20042;-87
2022/05/31 00:02:44;;;;;;;5.45;2.60;;;14.50;87.90;;;;;;4970604;28;20367;-87
2022/05/31 00:05:10;;;;;;;7.35;2.95;;;14.50;87.90;;;;;;4983504;28;20101;-87
2022/05/31 00:07:37;;;;;;;7.25;2.88;;;14.40;88.10;;;;;;4975780;28;20026;-87
2022/05/31 00:10:04;;;;;;;5.65;2.80;;;14.40;88.30;;;;;;4968278;28;20039;-88
2022/05/31 00:12:31;;;;;;;5.57;3.10;;;14.40;88.40;;;;;;4931354;29;20035;-87
2022/05/31 00:14:57;;;;;;;5.57;2.88;;;14.40;88.70;;;;;;4952365;28;20035;-88
2022/05/31 00:17:26;;;;;;;7.25;3.30;;;14.40;88.80;;;;;;4959533;28;20098;-87
2022/05/31 00:19:51;;;;;;;9.13;3.60;;;14.30;88.90;;;;;;4957657;28;20073;-88
2022/05/31 00:22:24;;;;;;;6.95;3.28;;;14.30;89.20;;;;;;4943925;28;20027;-88
2022/05/31 00:24:50;;;;;;;5.68;3.30;;;14.20;89.30;;;;;;4959727;28;20031;-87
2022/05/31 00:27:19;;;;;;;5.72;3.33;;;14.20;89.50;;;;;;4955893;28;20031;-86
2022/05/31 00:29:47;;;;;;;4.63;3.13;;;14.20;89.50;;;;;;4949072;28;20034;-87
2022/05/31 00:32:14;;;;;;;6.93;3.67;;;14.20;89.60;;;;;;4957965;28;20034;-87
2022/05/31 00:34:43;;;;;;;6.13;3.03;;;14.10;89.80;;;;;;4964374;28;20102;-87
2022/05/31 00:37:12;;;;;;;6.90;3.38;;;14.10;89.80;;;;;;4976326;28;20522;-88
2022/05/31 00:39:38;;;;;;;10.90;4.35;;;14.10;90.00;;;;;;4962400;28;20031;-87
2022/05/31 00:42:07;;;;;;;6.38;3.58;;;14.10;90.00;;;;;;4959243;28;20019;-87
2022/05/31 00:44:37;;;;;;;5.35;3.13;;;14.00;90.10;;;;;;4945765;28;20383;-87
2022/05/31 00:47:04;;;;;;;6.10;3.85;;;14.00;90.10;;;;;;4959137;28;20023;-87
2022/05/31 00:49:38;;;;;;;8.68;3.42;;;14.00;90.20;;;;;;4958907;28;20019;-87
2022/05/31 00:52:18;;;;;;;5.47;3.30;;;14.00;90.30;;;;;;4966236;28;20380;-87
2022/05/31 00:54:52;;;;;;;5.90;3.50;;;13.90;90.30;;;;;;4961051;28;20421;-87
2022/05/31 00:57:18;;;;;;;6.35;3.67;;;13.90;90.40;;;;;;4956860;28;20031;-87
2022/05/31 00:59:51;;;;;;;8.43;4.20;;;13.90;90.40;;;;;;4952910;28;20035;-87
2022/05/31 01:02:17;;;;;;;5.70;4.05;;;13.90;90.50;;;;;;4949310;28;20023;-87
2022/05/31 01:04:57;;;;;;;6.70;3.90;;;13.80;90.60;;;;;;4958676;28;20023;-87
2022/05/31 01:07:23;;;;;;;7.22;3.88;;;13.80;90.70;;;;;;4958905;28;20018;-88
2022/05/31 01:09:50;;;;;;;5.85;3.85;;;13.80;90.70;;;;;;4956156;28;20046;-87
2022/05/31 01:12:17;;;;;;;8.82;4.53;;;13.80;90.70;;;;;;4955309;28;20049;-87
2022/05/31 01:14:43;;;;;;;6.63;4.00;;;13.70;90.70;;;;;;4956674;28;20099;-87
2022/05/31 01:17:23;;;;;;;6.93;4.10;;;13.70;90.80;;;;;;4939210;29;20527;-87
2022/05/31 01:20:01;;;;;;;6.53;4.00;;;13.70;90.80;;;;;;4955704;28;20035;-88
2022/05/31 01:22:29;;;;;;;6.55;4.40;;;13.70;90.90;;;;;;4968133;28;20086;-87
2022/05/31 01:25:12;;;;;;;7.80;4.03;;;13.60;90.90;;;;;;4939421;28;20031;-88
2022/05/31 01:27:46;;;;;;;6.43;3.70;;;13.60;90.90;;;;;;4947239;28;20026;-87
2022/05/31 01:30:15;;;;;;;8.13;4.20;;;13.60;91.00;;;;;;4971871;28;20108;-87
2022/05/31 01:33:07;;;;;;;9.35;3.92;;;13.50;91.10;;;;;;4955186;29;20026;-87
2022/05/31 01:35:35;;;;;;;6.18;3.92;;;13.50;91.10;;;;;;4969088;28;20017;-87
2022/05/31 01:38:22;;;;;;;6.00;4.10;;;13.50;91.10;;;;;;4942294;28;20104;-88
2022/05/31 01:41:23;;;;;;;10.23;3.88;;;13.50;91.10;;;;;;4954351;29;20110;-87
2022/05/31 01:43:52;;;;;;;6.07;4.05;;;13.40;91.20;;;;;;4969584;28;20019;-87
2022/05/31 01:46:25;;;;;;;7.97;4.07;;;13.40;91.30;;;;;;4982307;28;20018;-87
2022/05/31 01:48:51;;;;;;;7.10;4.10;;;13.30;91.40;;;;;;4950076;28;20038;-87
2022/05/31 01:51:17;;;;;;;7.40;4.28;;;13.30;91.40;;;;;;4975338;28;20082;-87
2022/05/31 01:53:43;;;;;;;7.75;4.70;;;13.30;91.50;;;;;;4987245;28;20374;-87
2022/05/31 01:56:10;;;;;;;6.32;4.13;;;13.30;91.50;;;;;;4941608;28;20026;-88
2022/05/31 01:58:40;;;;;;;7.13;4.80;;;13.30;91.60;;;;;;4955070;28;20027;-88
2022/05/31 02:01:06;;;;;;;7.82;4.35;;;13.30;91.70;;;;;;4954624;28;20106;-88
2022/05/31 02:03:33;;;;;;;7.43;4.60;;;13.20;91.70;;;;;;4955965;28;20035;-87
2022/05/31 02:06:01;;;;;;;8.40;4.35;;;13.20;91.80;;;;;;4955000;28;20022;-88
2022/05/31 02:08:33;;;;;;;8.90;4.80;;;13.20;91.90;;;;;;4955740;28;20030;-88
2022/05/31 02:10:59;;;;;;;7.00;4.13;;;13.20;91.90;;;;;;4955460;28;20038;-88
2022/05/31 02:13:27;;;;;;;6.63;4.10;;;13.20;92.00;;;;;;4957987;28;20035;-88
2022/05/31 02:15:54;;;;;;;8.23;3.97;;;13.20;92.10;;;;;;4970579;28;20117;-88
2022/05/31 02:18:22;;;;;;;6.30;4.40;;;13.20;92.20;;;;;;4957200;28;20071;-88
2022/05/31 02:20:48;;;;;;;7.35;4.30;;;13.20;92.20;;;;;;4954802;28;20119;-88
2022/05/31 02:23:14;;;;;;;7.13;4.00;;;13.10;92.30;;;;;;4941597;28;20158;-87
2022/05/31 02:25:40;;;;;;;7.25;4.38;;;13.10;92.30;;;;;;4948556;29;20119;-88
2022/05/31 02:28:09;;;;;;;6.90;4.15;;;13.10;92.40;;;;;;4953427;28;20046;-87
2022/05/31 02:30:34;;;;;;;6.50;3.97;;;13.10;92.40;;;;;;4954239;29;20118;-87
2022/05/31 02:33:00;;;;;;;7.43;3.90;;;13.10;92.40;;;;;;4944593;28;20115;-88
2022/05/31 02:35:26;;;;;;;7.28;3.90;;;13.10;92.50;;;;;;4957162;28;20038;-88
2022/05/31 02:37:52;;;;;;;7.40;4.18;;;13.10;92.50;;;;;;4967538;28;20451;-87
2022/05/31 02:40:18;;;;;;;7.47;3.63;;;13.10;92.50;;;;;;4955542;28;20467;-87
2022/05/31 02:42:44;;;;;;;7.25;4.35;;;13.10;92.50;;;;;;4970951;28;20026;-87
2022/05/31 02:45:12;;;;;;;9.32;3.88;;;13.10;92.50;;;;;;4954268;29;20543;-89
2022/05/31 02:47:39;;;;;;;5.80;3.90;;;13.00;92.40;;;;;;4954503;28;20046;-87
2022/05/31 02:50:06;;;;;;;6.47;3.70;;;13.00;92.50;;;;;;4965491;28;20035;-88
2022/05/31 02:52:33;;;;;;;5.47;3.50;;;13.00;92.50;;;;;;4976770;28;20518;-87
2022/05/31 02:54:58;;;;;;;6.75;3.85;;;13.00;92.60;;;;;;4976630;28;20036;-88
2022/05/31 02:57:24;;;;;;;6.78;3.90;;;13.00;92.60;;;;;;4976097;28;20105;-87
2022/05/31 02:59:50;;;;;;;7.72;4.10;;;12.90;92.60;;;;;;4969831;28;20121;-87
2022/05/31 03:02:15;;;;;;;7.00;3.78;;;12.90;92.60;;;;;;4986622;28;20030;-87
2022/05/31 03:04:41;;;;;;;9.18;4.28;;;12.90;92.70;;;;;;4969674;28;20216;-88
2022/05/31 03:07:09;;;;;;;6.28;3.80;;;12.90;92.80;;;;;;4979003;28;20474;-87
2022/05/31 03:09:34;;;;;;;6.70;4.35;;;12.90;92.90;;;;;;4964221;28;20077;-88
2022/05/31 03:12:14;;;;;;;7.22;3.70;;;12.90;93.00;;;;;;4980458;28;20018;-88
2022/05/31 03:15:09;;;;;;;6.28;4.18;;;12.80;93.10;;;;;;4958337;28;20023;-88
2022/05/31 03:17:38;;;;;;;7.35;3.70;;;12.80;93.20;;;;;;4981715;28;20117;-88
2022/05/31 03:20:12;;;;;;;6.78;4.40;;;12.80;93.20;;;;;;4971586;28;20035;-87
2022/05/31 03:22:44;;;;;;;6.80;4.15;;;12.80;93.30;;;;;;4950554;28;20031;-88
2022/05/31 03:25:16;;;;;;;8.93;4.45;;;12.70;93.20;;;;;;4957648;28;20016;-87
2022/05/31 03:27:43;;;;;;;7.72;4.30;;;12.80;93.40;;;;;;4942214;29;20038;-87
2022/05/31 03:30:09;;;;;;;6.05;3.97;;;12.70;93.40;;;;;;4984725;28;20031;-88
2022/05/31 03:32:36;;;;;;;9.13;4.03;;;12.70;93.40;;;;;;4947821;28;20178;-88
2022/05/31 03:35:05;;;;;;;6.78;4.10;;;12.70;93.50;;;;;;4960974;28;20050;-87
2022/05/31 03:37:34;;;;;;;6.97;3.97;;;12.70;93.60;;;;;;4979043;28;20057;-88
2022/05/31 03:40:04;;;;;;;9.25;5.22;;;12.70;93.60;;;;;;4986226;28;20136;-88
2022/05/31 03:42:30;;;;;;;8.07;4.40;;;12.60;93.70;;;;;;4957425;29;20459;-87
2022/05/31 03:44:58;;;;;;;7.88;4.70;;;12.60;93.80;;;;;;4958334;28;20039;-88
2022/05/31 03:47:24;;;;;;;6.00;4.60;;;12.60;93.90;;;;;;4984345;28;20110;-88
2022/05/31 03:49:49;;;;;;;6.47;4.70;;;12.60;94.00;;;;;;4949395;28;20125;-87
2022/05/31 03:52:15;;;;;;;6.28;4.40;;;12.60;94.00;;;;;;4963496;28;20028;-88
2022/05/31 03:54:41;;;;;;;8.27;4.90;;;12.60;94.10;;;;;;4941293;29;20031;-88
2022/05/31 03:57:12;;;;;;;7.43;4.90;;;12.60;94.10;;;;;;4957025;28;20023;-88
2022/05/31 03:59:39;;;;;;;8.30;4.70;;;12.60;94.20;;;;;;4964582;28;20023;-87
2022/05/31 04:02:05;;;;;;;7.60;4.57;;;12.60;94.20;;;;;;4957876;28;20027;-88
2022/05/31 04:04:31;;;;;;;9.02;4.90;;;12.60;94.20;;;;;;4957511;28;20117;-87
2022/05/31 04:06:57;;;;;;;6.35;4.60;;;12.60;94.30;;;;;;4960222;28;20082;-87
2022/05/31 04:09:23;;;;;;;6.90;4.60;;;12.50;94.30;;;;;;4958785;28;20031;-87
2022/05/31 04:11:48;;;;;;;7.93;5.15;;;12.50;94.40;;;;;;4940861;29;20114;-87
2022/05/31 04:14:17;;;;;;;8.40;4.68;;;12.50;94.50;;;;;;4953835;28;20027;-87
2022/05/31 04:16:42;;;;;;;8.43;4.80;;;12.50;94.50;;;;;;4959057;28;20505;-87
2022/05/31 04:19:08;;;;;;;7.95;4.68;;;12.50;94.50;;;;;;4965452;28;20031;-87
2022/05/31 04:21:34;;;;;;;7.55;4.97;;;12.50;94.50;;;;;;4973650;28;20462;-87
2022/05/31 04:23:59;;;;;;;9.65;5.07;;;12.50;94.60;;;;;;4944225;28;20388;-87
2022/05/31 04:26:44;;;;;;;9.10;5.78;;;12.50;94.70;;;;;;4975091;28;20033;-87
2022/05/31 04:29:16;;;;;;;9.52;5.15;;;12.50;94.70;;;;;;4962607;28;20117;-88
2022/05/31 04:31:48;;;;;;;7.00;4.95;;;12.50;94.70;;;;;;4943728;28;20514;-87
2022/05/31 04:34:17;;;;;;;8.35;5.47;;;12.50;94.70;;;;;;4963680;28;20089;-87
2022/05/31 04:36:42;;;;;;;6.10;4.80;;;12.50;94.80;;;;;;4940248;29;20031;-88
2022/05/31 04:39:08;;;;;;;8.65;4.25;;;12.50;95.00;;;;;;4975467;28;20372;-87
2022/05/31 04:41:34;;;;;;;7.60;5.10;;;12.50;95.00;;;;;;4956042;29;20102;-88
2022/05/31 04:44:04;;;;;;;6.32;4.75;;;12.50;95.10;;;;;;4973124;28;20047;-87
2022/05/31 04:46:31;;;;;;;7.22;4.80;;;12.50;95.20;;;;;;4976486;28;20038;-87
2022/05/31 04:48:59;;;;;;;6.82;5.00;;;12.50;95.30;;;;;;4956384;28;20049;-87
2022/05/31 04:51:29;;;;;;;10.75;5.70;;;12.50;95.40;;;;;;4945885;28;20104;-87
2022/05/31 04:53:55;;;;;;;7.75;5.00;;;12.50;95.40;;;;;;4956409;28;20118;-87
2022/05/31 04:56:22;;;;;;;7.53;5.15;;;12.50;95.50;;;;;;4972555;28;20059;-88
2022/05/31 04:58:50;;;;;;;8.57;5.75;;;12.50;95.60;;;;;;4981257;28;20027;-87
2022/05/31 05:01:18;;;;;;;8.45;5.45;;;12.50;95.60;;;;;;4957955;28;20023;-88
2022/05/31 05:03:44;;;;;;;7.38;5.15;;;12.50;95.70;;;;;;4937483;28;20058;-86
2022/05/31 05:06:15;;;;;;;8.25;5.25;;;12.50;95.70;;;;;;4969368;28;20416;-86
2022/05/31 05:08:41;;;;;;;9.40;5.32;;;12.50;95.70;;;;;;4951919;28;20106;-87
2022/05/31 05:11:09;;;;;;;9.82;5.95;;;12.50;95.70;;;;;;4960675;28;20110;-87
2022/05/31 05:13:36;;;;;;;7.88;5.45;;;12.50;95.70;;;;;;4972217;28;20035;-87
2022/05/31 05:16:02;;;;;;;7.72;5.50;;;12.50;95.70;;;;;;4973491;28;20027;-88
2022/05/31 05:18:30;;;;;;;8.65;5.32;;;12.50;95.60;;;;;;4961552;28;20095;-88
2022/05/31 05:20:58;;;;;;;8.52;5.40;;;12.50;95.90;;;;;;4945155;28;20039;-88
2022/05/31 05:23:24;;;;;;;9.05;5.72;;;12.50;95.70;;;;;;4960068;28;20079;-87
2022/05/31 05:25:52;;;;;;;7.10;5.40;;;12.50;95.80;;;;;;4957609;28;20034;-88
2022/05/31 05:31:02;;;;;;;7.45;5.53;;;12.50;95.80;;;;;;4953786;28;20058;-88
2022/05/31 05:33:29;;;;;;;11.65;6.30;;;12.50;95.80;;;;;;4968720;28;20435;-88
2022/05/31 05:38:51;;;;;;;9.43;5.93;;;12.50;95.90;;;;;;4954169;28;20026;-87
2022/05/31 05:41:18;;;;;;;9.48;5.40;;;12.50;96.00;;;;;;4976978;28;20109;-86
2022/05/31 05:43:46;;;;;;;10.13;5.90;;;12.60;96.10;;;;;;4954267;28;20074;-86
2022/05/31 05:46:14;;;;;;;10.32;6.72;;;12.60;96.20;;;;;;4974079;28;20031;-87
2022/05/31 05:48:41;;;;;;;9.85;6.05;;;12.60;96.30;;;;;;4980395;28;20087;-86
2022/05/31 05:51:22;;;;;;;10.07;6.40;;;12.60;96.30;;;;;;4957324;28;20027;-87
2022/05/31 05:53:49;;;;;;;11.95;7.15;;;12.60;96.30;;;;;;4955794;28;20065;-87
2022/05/31 05:56:18;;;;;;;8.23;6.28;;;12.60;96.30;;;;;;4956189;28;20022;-87
2022/05/31 05:58:44;;;;;;;9.48;6.90;;;12.60;96.40;;;;;;4971112;28;20034;-87
2022/05/31 06:01:21;;;;;;;9.50;6.85;;;12.60;96.40;;;;;;4978591;28;20027;-87
2022/05/31 06:04:20;;;;;;;7.88;6.72;;;12.60;96.40;;;;;;4955365;28;20049;-87
2022/05/31 06:06:49;;;;;;;11.20;7.28;;;12.60;96.30;;;;;;4972677;28;20097;-87
2022/05/31 06:09:19;;;;;;;9.57;6.78;;;12.60;96.30;;;;;;4953351;28;20022;-87
2022/05/31 06:11:54;;;;;;;9.13;6.13;;;12.60;96.30;;;;;;4969444;28;20065;-87
2022/05/31 06:14:29;;;;;;;10.30;6.57;;;12.60;96.30;;;;;;4968178;28;20026;-87
2022/05/31 06:17:00;;;;;;;11.18;6.68;;;12.60;96.30;;;;;;4966142;28;20055;-87
2022/05/31 06:19:27;;;;;;;;;;;12.70;96.40;;;;;;4955570;28;20035;-87
2022/05/31 06:21:53;;;;;;;10.18;6.93;;;12.70;96.50;;;;;;4949354;28;19921;-84
2022/05/31 06:24:20;;;;;;;12.93;6.95;;;12.70;96.50;;;;;;4973489;28;20463;-86
2022/05/31 06:26:45;;;;;;;15.02;7.55;;;12.70;96.50;;;;;;4967895;28;20374;-86
2022/05/31 06:29:11;;;;;;;11.45;7.57;;;12.70;96.50;;;;;;4986122;28;20034;-86
2022/05/31 06:31:38;;;;;;;11.95;8.23;;;12.70;96.40;;;;;;4960389;28;20023;-87
2022/05/31 06:34:07;;;;;;;12.88;6.95;;;12.70;96.40;;;;;;4939068;28;20031;-87
2022/05/31 06:36:32;;;;;;;13.05;7.25;;;12.70;96.50;;;;;;4956830;28;20023;-86
2022/05/31 06:38:58;;;;;;;13.43;7.55;;;12.70;96.70;;;;;;4977021;28;20549;-86
2022/05/31 06:41:24;;;;;;;11.55;8.20;;;12.80;96.50;;;;;;4971547;28;20029;-86
2022/05/31 06:43:49;;;;;;;17.98;8.55;;;12.80;96.50;;;;;;4945263;28;20036;-86
2022/05/31 06:46:15;;;;;;;11.15;7.28;;;12.80;96.50;;;;;;4956596;28;20022;-86
2022/05/31 06:48:41;;;;;;;11.18;7.90;;;12.80;96.50;;;;;;4944178;29;20020;-86
2022/05/31 06:51:09;;;;;;;11.40;7.97;;;12.80;96.50;;;;;;4940960;29;20580;-86
2022/05/31 06:59:04;;;;;;;12.90;7.05;;;12.80;96.60;;;;;;4969552;28;20065;-87
2022/05/31 07:01:35;;;;;;;13.07;7.75;;;12.90;96.60;;;;;;4951500;28;20458;-86
2022/05/31 07:04:01;;;;;;;13.18;7.30;;;12.90;96.60;;;;;;4948956;28;20365;-87
2022/05/31 07:06:28;;;;;;;9.73;7.68;;;12.90;96.60;;;;;;4950334;28;20027;-87
2022/05/31 07:08:57;;;;;;;11.90;7.03;;;12.90;96.70;;;;;;4954619;29;20042;-87
2022/05/31 07:11:23;;;;;;;13.40;7.38;;;12.90;96.70;;;;;;4946357;29;20106;-87
2022/05/31 07:13:49;;;;;;;11.07;7.00;;;13.00;96.80;;;;;;4955110;28;20463;-88
2022/05/31 07:16:23;;;;;;;10.55;6.68;;;12.90;96.70;;;;;;4949983;28;20058;-88
2022/05/31 07:18:51;;;;;;;12.43;7.30;;;13.00;96.80;;;;;;4973783;28;20467;-88
2022/05/31 07:21:17;;;;;;;9.10;6.95;;;13.00;96.80;;;;;;4954661;29;20022;-87
2022/05/31 07:23:42;;;;;;;10.13;7.18;;;13.00;97.10;;;;;;4952597;28;20035;-88
2022/05/31 07:26:24;;;;;;;12.02;6.18;;;13.00;96.90;;;;;;4955888;29;20391;-88
2022/05/31 07:28:50;;;;;;;7.82;6.30;;;13.10;96.90;;;;;;4965172;28;20038;-88
2022/05/31 07:31:15;;;;;;;10.25;6.50;;;13.10;96.90;;;;;;4969379;28;20111;-87
2022/05/31 07:33:41;;;;;;;12.30;7.25;;;13.10;96.90;;;;;;4995658;28;20380;-88
2022/05/31 07:36:07;;;;;;;8.73;6.05;;;13.10;96.90;;;;;;4976654;28;20031;-87
2022/05/31 07:38:36;;;;;;;10.07;6.70;;;13.10;97.20;;;;;;4968329;29;20051;-87
2022/05/31 07:41:04;;;;;;;11.32;6.88;;;13.20;97.00;;;;;;4973671;28;20045;-88
2022/05/31 07:43:33;;;;;;;10.55;6.97;;;13.20;97.00;;;;;;4981984;28;20047;-88
2022/05/31 07:46:10;;;;;;;10.20;6.13;;;13.30;97.10;;;;;;4971331;28;20015;-86
2022/05/31 07:48:37;;;;;;;12.55;6.75;;;13.20;97.10;;;;;;5005018;28;19998;-87
2022/05/31 07:51:04;;;;;;;10.73;6.88;;;13.30;97.10;;;;;;4985688;28;20091;-88
2022/05/31 07:53:31;;;;;;;12.25;7.38;;;13.30;97.10;;;;;;4990577;28;20038;-87
2022/05/31 07:56:08;;;;;;;11.77;7.45;;;13.40;97.20;;;;;;4983830;28;20014;-88
2022/05/31 07:58:38;;;;;;;9.23;6.88;;;13.40;97.20;;;;;;5004971;28;20019;-89
2022/05/31 08:01:08;;;;;;;9.43;6.88;;;13.40;97.30;;;;;;4982648;28;20003;-88
2022/05/31 08:03:37;;;;;;;15.90;7.32;;;13.40;97.20;;;;;;4976476;28;20134;-87
2022/05/31 08:06:49;;;;;;;11.45;7.03;;;13.40;97.20;;;;;;4965120;28;20023;-91
2022/05/31 08:09:23;;;;;;;9.73;7.00;;;13.50;97.30;;;;;;4986164;28;20031;-87
2022/05/31 08:11:49;;;;;;;13.15;7.43;;;13.50;97.30;;;;;;4967438;28;20031;-88
2022/05/31 08:14:14;;;;;;;8.57;6.22;;;13.50;97.30;;;;;;4961591;28;20070;-88
2022/05/31 08:16:42;;;;;;;8.40;5.88;;;13.50;97.30;;;;;;4955260;28;20047;-87
2022/05/31 08:19:08;;;;;;;11.32;6.75;;;13.60;97.30;;;;;;4947546;28;20037;-88
2022/05/31 08:21:34;;;;;;;10.38;6.50;;;13.60;97.30;;;;;;4973471;28;20455;-88
2022/05/31 08:24:04;;;;;;;9.75;6.10;;;13.60;97.30;;;;;;4964967;28;20023;-88
2022/05/31 08:26:33;;;;;;;9.13;6.43;;;13.70;97.40;;;;;;4946578;28;20117;-88
2022/05/31 08:29:01;;;;;;;10.88;6.55;;;13.70;97.40;;;;;;4971850;28;20042;-89
2022/05/31 08:31:34;;;;;;;7.68;5.90;;;13.70;97.40;;;;;;4959456;28;20035;-88
2022/05/31 08:34:04;;;;;;;7.85;5.50;;;13.80;97.40;;;;;;4971946;28;20027;-88
2022/05/31 08:36:29;;;;;;;9.52;5.90;;;13.80;97.40;;;;;;4960507;28;20041;-87
2022/05/31 08:38:58;;;;;;;11.27;6.40;;;13.80;97.40;;;;;;4959556;28;20022;-87
2022/05/31 08:41:28;;;;;;;8.60;6.20;;;13.90;97.50;;;;;;4988307;28;20041;-88
2022/05/31 08:44:31;;;;;;;10.32;5.60;;;13.90;97.50;;;;;;4958197;28;20026;-89
2022/05/31 08:47:22;;;;;;;14.82;6.70;;;13.90;97.40;;;;;;4959454;28;20471;-85
2022/05/31 08:53:33;;;;;;;8.68;6.00;;;14.00;97.40;;;;;;4976993;28;20042;-88
2022/05/31 08:59:14;;;;;;;9.65;5.80;;;14.10;97.30;;;;;;4968695;28;20034;-88
2022/05/31 09:02:23;;;;;;;9.93;5.97;;;14.10;97.30;;;;;;4972965;28;20027;-87
2022/05/31 09:05:13;;;;;;;7.65;5.38;;;14.20;97.20;;;;;;4965891;28;20502;-89
2022/05/31 09:07:57;;;;;;;9.38;5.43;;;14.20;97.10;;;;;;4967100;28;20109;-89
2022/05/31 09:11:05;;;;;;;9.75;6.20;;;14.20;97.00;;;;;;4958235;28;20081;-88
2022/05/31 09:13:42;;;;;;;11.70;6.03;;;14.30;96.90;;;;;;4959951;28;20147;-88
2022/05/31 09:16:41;;;;;;;12.48;5.97;;;14.30;96.70;;;;;;4955634;28;20059;-86
2022/05/31 09:19:13;;;;;;;11.43;6.70;;;14.30;96.70;;;;;;4934038;28;20537;-87
2022/05/31 09:21:48;;;;;;;18.00;6.63;;;14.40;96.70;;;;;;4955893;29;20548;-87
2022/05/31 09:24:19;;;;;;;14.55;5.88;;;14.40;95.90;;;;;;4961693;28;20106;-86
2022/05/31 09:26:56;;;;;;;10.35;5.85;;;14.50;96.00;;;;;;4958936;28;20038;-87
2022/05/31 09:29:31;;;;;;;9.88;5.85;;;14.60;95.90;;;;;;4954660;29;20031;-87
2022/05/31 09:32:05;;;;;;;8.05;5.55;;;14.70;95.80;;;;;;4955529;28;20031;-87
2022/05/31 09:34:31;;;;;;;11.65;6.13;;;14.80;95.80;;;;;;4953813;29;20518;-87
2022/05/31 09:37:07;;;;;;;8.40;5.18;;;14.80;95.60;;;;;;4972029;28;20022;-87
2022/05/31 09:39:57;;;;;;;7.30;4.72;;;15.00;95.70;;;;;;4975520;28;20038;-86
2022/05/31 09:42:31;;;;;;;10.50;6.20;;;15.10;95.80;;;;;;4954942;28;20032;-88
2022/05/31 09:45:08;;;;;;;8.43;5.45;;;15.20;95.60;;;;;;4967056;28;20027;-87
2022/05/31 09:47:34;;;;;;;8.02;4.75;;;15.30;95.10;;;;;;4975844;28;20034;-87
2022/05/31 09:50:00;;;;;;;6.15;4.13;;;15.30;94.70;;;;;;4969011;28;20030;-87
2022/05/31 09:52:33;;;;;;;7.07;4.30;;;15.40;94.30;;;;;;4973038;28;20391;-86
2022/05/31 09:58:36;;;;;;;7.15;3.00;;;15.60;93.20;;;;;;4974898;28;20486;-87
2022/05/31 10:01:12;;;;;;;6.80;2.70;;;15.70;92.50;;;;;;4958322;28;20023;-88
2022/05/31 10:03:49;;;;;;;6.78;2.97;;;15.80;92.20;;;;;;4944505;28;20415;-88
2022/05/31 10:06:30;;;;;;;5.50;2.95;;;15.90;92.20;;;;;;4957968;28;20023;-88
2022/05/31 10:08:56;;;;;;;4.68;2.88;;;16.00;91.90;;;;;;4967496;28;20035;-88
2022/05/31 10:11:30;;;;;;;4.28;2.40;;;16.10;91.40;;;;;;4966369;28;20031;-89
2022/05/31 10:14:08;;;;;;;6.40;3.17;;;16.20;90.10;;;;;;4950856;28;20117;-89
2022/05/31 10:16:37;;;;;;;4.80;2.95;;;16.20;88.20;;;;;;4949304;28;20047;-89
2022/05/31 10:19:20;;;;;;;5.00;2.70;;;16.30;86.90;;;;;;4933300;28;20138;-87
2022/05/31 10:21:48;;;;;;;4.47;2.60;;;16.30;87.00;;;;;;4975019;28;20374;-88
2022/05/31 10:24:16;;;;;;;6.65;3.25;;;16.40;87.30;;;;;;4983608;28;20034;-88
2022/05/31 10:26:43;;;;;;;5.75;2.70;;;16.40;86.80;;;;;;4959781;28;20023;-90
2022/05/31 10:29:21;;;;;;;4.22;2.72;;;16.50;86.40;;;;;;4971920;28;20069;-88
2022/05/31 10:31:48;;;;;;;6.10;2.95;;;16.60;84.40;;;;;;4959675;28;20030;-88
2022/05/31 10:34:26;;;;;;;6.32;2.72;;;16.60;82.70;;;;;;4973185;28;20036;-86
2022/05/31 10:36:55;;;;;;;5.72;2.67;;;16.60;83.10;;;;;;4974541;28;20030;-86
2022/05/31 10:39:28;;;;;;;4.32;2.78;;;16.70;83.50;;;;;;4958357;28;20038;-87
2022/05/31 10:41:57;;;;;;;4.43;2.72;;;16.70;83.50;;;;;;4942520;28;20046;-87
2022/05/31 10:44:29;;;;;;;5.95;3.28;;;16.80;83.90;;;;;;4942373;28;20388;-87
2022/05/31 10:47:07;;;;;;;6.93;3.90;;;16.80;84.40;;;;;;4954511;28;20046;-88
2022/05/31 10:49:35;;;;;;;6.35;3.42;;;16.80;82.80;;;;;;4951446;28;20066;-87
2022/05/31 10:52:06;;;;;;;5.25;3.38;;;16.90;83.00;;;;;;4955385;28;20047;-87
2022/05/31 10:54:47;;;;;;;6.95;3.17;;;16.90;82.90;;;;;;4955605;28;20313;-89
2022/05/31 10:57:29;;;;;;;;;;;17.00;77.80;;;;;;4968501;28;20053;-88
2022/05/31 11:00:24;;;;;;;6.05;2.80;;;17.00;77.30;;;;;;4968462;28;19907;-89
2022/05/31 11:02:50;;;;;;;5.35;2.50;;;17.10;76.60;;;;;;4962176;28;20023;-89
2022/05/31 11:05:19;;;;;;;4.72;2.45;;;17.20;76.80;;;;;;4977014;28;20490;-89
2022/05/31 11:13:39;;;;;;;4.20;2.53;;;17.40;76.60;;;;;;4979515;28;19925;-86
2022/05/31 11:16:19;;;;;;;4.63;2.78;;;17.40;76.80;;;;;;4950568;28;20019;-86
2022/05/31 11:19:01;;;;;;;6.07;3.08;;;17.50;76.70;;;;;;4956844;28;20086;-89
2022/05/31 11:21:48;;;;;;;4.50;2.42;;;17.60;77.20;;;;;;4946751;29;20039;-88
2022/05/31 11:24:21;;;;;;;4.40;2.20;;;17.70;77.60;;;;;;4952671;28;20528;-89
2022/05/31 11:27:26;;;;;;;4.95;2.45;;;17.80;78.00;;;;;;4969218;28;20059;-89
2022/05/31 11:30:00;;;;;;;5.53;2.55;;;17.90;78.30;;;;;;4967734;28;20023;-90
2022/05/31 11:32:50;;;;;;;5.93;3.22;;;18.00;75.40;;;;;;4959800;28;20032;-89
2022/05/31 11:35:24;;;;;;;4.15;1.92;;;18.00;73.30;;;;;;4973887;28;20050;-89
2022/05/31 11:38:05;;;;;;;5.38;2.38;;;18.10;72.50;;;;;;4951264;28;20030;-88
2022/05/31 11:41:02;;;;;;;4.10;2.10;;;18.10;71.20;;;;;;4958771;28;20035;-88
2022/05/31 11:44:05;;;;;;;3.83;2.00;;;18.10;70.60;;;;;;4953245;28;20027;-89
2022/05/31 11:47:14;;;;;;;6.00;2.05;;;18.20;71.40;;;;;;4974030;28;20106;-89
2022/05/31 11:49:50;;;;;;;4.78;1.80;;;18.20;70.80;;;;;;4902497;29;20028;-88
2022/05/31 11:53:03;;;;;;;4.18;1.75;;;18.30;71.50;;;;;;4919329;29;20046;-89
2022/05/31 11:55:28;;;;;;;4.22;2.35;;;18.30;70.80;;;;;;4935018;28;20045;-90
2022/05/31 11:58:15;;;;;;;6.28;1.85;;;18.30;70.10;;;;;;4972155;28;20053;-91
2022/05/31 12:00:54;;;;;;;3.40;1.67;;;18.40;69.60;;;;;;4951303;28;20030;-92
2022/05/31 12:03:41;;;;;;;3.35;1.58;;;18.40;69.80;;;;;;4959992;28;20027;-91
2022/05/31 12:06:36;;;;;;;3.53;1.52;;;18.50;69.90;;;;;;4947401;29;20025;-92
2022/05/31 12:09:14;;;;;;;3.72;1.75;;;18.50;69.30;;;;;;4939415;28;20030;-90
2022/05/31 12:12:14;;;;;;;3.08;1.58;;;18.60;67.80;;;;;;4955129;28;20383;-90
2022/05/31 12:14:45;;;;;;;6.33;2.30;;;18.70;66.70;;;;;;4960480;28;20029;-90
2022/05/31 12:17:11;;;;;;;3.88;1.45;;;18.80;66.70;;;;;;4965948;28;20050;-90
2022/05/31 12:20:06;;;;;;;3.35;1.45;;;18.90;66.80;;;;;;4974479;28;20061;-90
2022/05/31 12:22:44;;;;;;;2.13;1.33;;;19.00;66.40;;;;;;4951072;29;20023;-90
2022/05/31 12:25:25;;;;;;;5.40;1.60;;;19.00;66.20;;;;;;4953100;28;20027;-90
2022/05/31 12:28:05;;;;;;;5.95;2.05;;;19.10;64.00;;;;;;4957261;28;20020;-87
2022/05/31 12:30:57;;;;;;;4.05;1.95;;;19.20;62.30;;;;;;4956819;28;20031;-89
2022/05/31 12:33:43;;;;;;;4.60;1.95;;;19.20;61.70;;;;;;4955619;28;20074;-88
2022/05/31 12:36:13;;;;;;;4.65;2.20;;;19.30;63.00;;;;;;4958522;28;20023;-88
2022/05/31 12:39:05;;;;;;;4.38;1.85;;;19.40;63.50;;;;;;4965834;28;20081;-88
2022/05/31 12:41:38;;;;;;;3.40;1.75;;;19.40;63.60;;;;;;4953770;28;20110;-89
2022/05/31 12:44:27;;;;;;;4.60;1.77;;;19.50;63.50;;;;;;4976797;28;20026;-89
2022/05/31 12:46:53;;;;;;;6.97;1.75;;;19.60;64.10;;;;;;4948956;28;20039;-89
2022/05/31 12:49:31;;;;;;;3.60;1.70;;;19.60;64.40;;;;;;4971333;28;20471;-89
2022/05/31 12:55:13;;;;;;;3.03;1.90;;;19.80;62.10;;;;;;4977005;28;20038;-88
2022/05/31 13:00:33;;;;;;;3.20;1.80;;;19.90;61.90;;;;;;4973460;28;20049;-87
2022/05/31 13:03:05;;;;;;;3.45;1.77;;;19.90;61.70;;;;;;4956071;28;20031;-88
2022/05/31 13:06:00;;;;;;;1.85;1.40;;;20.00;61.80;;;;;;4957751;28;20050;-89
2022/05/31 13:08:52;;;;;;;4.28;1.98;;;20.00;61.90;;;;;;4956354;28;20051;-90
2022/05/31 13:20:31;;;;;;;3.17;1.73;;;20.00;59.10;;;;;;4962651;28;20062;-89
2022/05/31 13:23:01;;;;;;;5.75;1.88;;;20.00;59.40;;;;;;4947768;28;20109;-89
2022/05/31 13:25:43;;;;;;;5.70;2.40;;;20.00;59.20;;;;;;4961913;28;20032;-90
2022/05/31 13:28:25;;;;;;;3.45;2.00;;;19.90;59.00;;;;;;4959326;28;20097;-90
2022/05/31 13:30:56;;;;;;;4.60;1.88;;;19.90;58.30;;;;;;4955671;28;20033;-89
2022/05/31 13:33:22;;;;;;;4.13;2.20;;;19.90;57.70;;;;;;4949553;28;20027;-90
2022/05/31 13:36:21;;;;;;;2.33;1.40;;;19.80;57.90;;;;;;4957701;28;20378;-89
2022/05/31 13:38:51;;;;;;;5.50;1.80;;;19.80;59.00;;;;;;4950795;28;20081;-89
2022/05/31 13:41:19;;;;;;;4.50;2.05;;;19.80;58.10;;;;;;4961289;28;20022;-89
2022/05/31 13:43:54;;;;;;;4.22;1.65;;;19.80;58.00;;;;;;4961401;28;20039;-89
2022/05/31 13:46:33;;;;;;;3.83;1.83;;;19.80;58.00;;;;;;4955737;29;20023;-90
2022/05/31 13:49:13;;;;;;;4.53;2.10;;;19.70;58.20;;;;;;4957400;28;20136;-90
2022/05/31 13:52:10;;;;;;;3.65;1.88;;;19.70;58.50;;;;;;4957443;28;20027;-89
2022/05/31 13:54:42;;;;;;;3.33;1.83;;;19.70;58.40;;;;;;4957055;28;20058;-90